sensor_id;sensor_type;location;lat;lon;timestamp;pressure;altitude;pressure_sealevel;temperature;humidity
36234;BME280;43467;50.890;5.982;2023-01-05T00:00:49;100361.00;;;11.34;86.39
36234;BME280;43467;50.890;5.982;2023-01-05T00:03:14;100376.63;;;11.40;86.15
36234;BME280;43467;50.890;5.982;2023-01-05T00:05:40;100380.56;;;11.50;85.77
36234;BME280;43467;50.890;5.982;2023-01-05T00:08:05;100384.50;;;11.42;86.10
36234;BME280;43467;50.890;5.982;2023-01-05T00:10:31;100385.44;;;11.41;86.04
36234;BME280;43467;50.890;5.982;2023-01-05T00:13:14;100391.00;;;11.35;86.44
36234;BME280;43467;50.890;5.982;2023-01-05T00:15:59;100381.94;;;11.40;86.28
36234;BME280;43467;50.890;5.982;2023-01-05T00:18:43;100385.72;;;11.35;86.32
36234;BME280;43467;50.890;5.982;2023-01-05T00:21:26;100360.78;;;11.20;86.67
36234;BME280;43467;50.890;5.982;2023-01-05T00:24:10;100386.84;;;11.29;86.81
36234;BME280;43467;50.890;5.982;2023-01-05T00:26:36;100388.78;;;11.26;87.29
36234;BME280;43467;50.890;5.982;2023-01-05T00:29:01;100396.63;;;11.29;87.15
36234;BME280;43467;50.890;5.982;2023-01-05T00:31:26;100393.09;;;11.28;86.94
36234;BME280;43467;50.890;5.982;2023-01-05T00:33:52;100404.56;;;11.29;87.26
36234;BME280;43467;50.890;5.982;2023-01-05T00:36:17;100388.06;;;11.22;87.55
36234;BME280;43467;50.890;5.982;2023-01-05T00:38:43;100398.81;;;11.19;87.73
36234;BME280;43467;50.890;5.982;2023-01-05T00:41:08;100409.00;;;11.28;87.58
36234;BME280;43467;50.890;5.982;2023-01-05T00:43:33;100410.69;;;11.29;87.47
36234;BME280;43467;50.890;5.982;2023-01-05T00:45:59;100401.09;;;11.27;87.27
36234;BME280;43467;50.890;5.982;2023-01-05T00:48:24;100413.34;;;11.29;87.29
36234;BME280;43467;50.890;5.982;2023-01-05T00:50:49;100413.44;;;11.28;87.16
36234;BME280;43467;50.890;5.982;2023-01-05T00:53:15;100415.22;;;11.27;87.73
36234;BME280;43467;50.890;5.982;2023-01-05T00:55:40;100413.25;;;11.32;87.38
36234;BME280;43467;50.890;5.982;2023-01-05T00:58:05;100399.47;;;11.24;87.47
36234;BME280;43467;50.890;5.982;2023-01-05T01:00:31;100407.28;;;11.27;87.58
36234;BME280;43467;50.890;5.982;2023-01-05T01:02:56;100406.41;;;11.27;87.29
36234;BME280;43467;50.890;5.982;2023-01-05T01:05:21;100407.28;;;11.27;87.43
36234;BME280;43467;50.890;5.982;2023-01-05T01:07:47;100403.97;;;11.22;88.03
36234;BME280;43467;50.890;5.982;2023-01-05T01:10:13;100394.28;;;11.21;87.92
36234;BME280;43467;50.890;5.982;2023-01-05T01:12:39;100390.88;;;11.19;87.74
36234;BME280;43467;50.890;5.982;2023-01-05T01:15:05;100381.53;;;11.29;87.34
36234;BME280;43467;50.890;5.982;2023-01-05T01:17:31;100378.28;;;11.24;87.41
36234;BME280;43467;50.890;5.982;2023-01-05T01:19:57;100393.22;;;11.25;87.86
36234;BME280;43467;50.890;5.982;2023-01-05T01:22:22;100387.19;;;11.22;87.65
36234;BME280;43467;50.890;5.982;2023-01-05T01:24:47;100391.72;;;11.19;87.77
36234;BME280;43467;50.890;5.982;2023-01-05T01:27:13;100394.09;;;11.26;87.38
36234;BME280;43467;50.890;5.982;2023-01-05T01:29:38;100392.66;;;11.18;87.61
36234;BME280;43467;50.890;5.982;2023-01-05T01:32:04;100399.38;;;11.26;87.37
36234;BME280;43467;50.890;5.982;2023-01-05T01:34:29;100407.28;;;11.27;86.89
36234;BME280;43467;50.890;5.982;2023-01-05T01:36:55;100390.31;;;11.31;86.85
36234;BME280;43467;50.890;5.982;2023-01-05T01:39:21;100394.09;;;11.26;87.01
36234;BME280;43467;50.890;5.982;2023-01-05T01:41:46;100379.25;;;11.22;86.52
36234;BME280;43467;50.890;5.982;2023-01-05T01:47:15;100412.63;;;11.26;86.77
36234;BME280;43467;50.890;5.982;2023-01-05T01:49:42;100421.59;;;11.23;87.17
36234;BME280;43467;50.890;5.982;2023-01-05T01:52:08;100424.03;;;11.28;86.74
36234;BME280;43467;50.890;5.982;2023-01-05T01:54:34;100426.75;;;11.26;86.48
36234;BME280;43467;50.890;5.982;2023-01-05T01:56:59;100439.09;;;11.27;86.27
36234;BME280;43467;50.890;5.982;2023-01-05T01:59:25;100429.53;;;11.23;86.24
36234;BME280;43467;50.890;5.982;2023-01-05T02:01:53;100447.25;;;11.23;86.22
36234;BME280;43467;50.890;5.982;2023-01-05T02:04:23;100428.47;;;11.27;86.04
36234;BME280;43467;50.890;5.982;2023-01-05T02:06:49;100435.50;;;11.28;85.90
36234;BME280;43467;50.890;5.982;2023-01-05T02:09:16;100444.44;;;11.26;86.07
36234;BME280;43467;50.890;5.982;2023-01-05T02:14:25;100438.38;;;11.24;85.59
36234;BME280;43467;50.890;5.982;2023-01-05T02:28:30;100449.84;;;11.24;85.38
36234;BME280;43467;50.890;5.982;2023-01-05T02:31:07;100456.72;;;11.28;85.38
36234;BME280;43467;50.890;5.982;2023-01-05T02:33:42;100452.75;;;11.18;85.13
36234;BME280;43467;50.890;5.982;2023-01-05T02:36:42;100455.47;;;11.16;85.13
36234;BME280;43467;50.890;5.982;2023-01-05T02:39:18;100470.03;;;11.27;85.12
36234;BME280;43467;50.890;5.982;2023-01-05T02:44:19;100465.94;;;11.19;84.95
36234;BME280;43467;50.890;5.982;2023-01-05T02:46:45;100459.78;;;11.19;85.33
36234;BME280;43467;50.890;5.982;2023-01-05T02:49:14;100468.44;;;11.23;85.25
36234;BME280;43467;50.890;5.982;2023-01-05T02:51:47;100463.09;;;11.24;85.38
36234;BME280;43467;50.890;5.982;2023-01-05T02:54:21;100453.25;;;11.26;85.11
36234;BME280;43467;50.890;5.982;2023-01-05T02:56:50;100451.81;;;11.19;85.23
36234;BME280;43467;50.890;5.982;2023-01-05T02:59:28;100459.63;;;11.22;85.27
36234;BME280;43467;50.890;5.982;2023-01-05T03:02:00;100459.22;;;11.31;85.12
36234;BME280;43467;50.890;5.982;2023-01-05T03:04:33;100463.50;;;11.34;84.81
36234;BME280;43467;50.890;5.982;2023-01-05T03:07:06;100463.72;;;11.29;84.55
36234;BME280;43467;50.890;5.982;2023-01-05T03:09:36;100457.34;;;11.33;84.47
36234;BME280;43467;50.890;5.982;2023-01-05T03:12:08;100457.06;;;11.21;84.71
36234;BME280;43467;50.890;5.982;2023-01-05T03:14:58;100455.38;;;11.18;84.72
36234;BME280;43467;50.890;5.982;2023-01-05T03:17:31;100467.31;;;11.28;84.16
36234;BME280;43467;50.890;5.982;2023-01-05T03:19:57;100449.94;;;11.21;84.48
36234;BME280;43467;50.890;5.982;2023-01-05T03:22:27;100467.38;;;11.27;84.24
36234;BME280;43467;50.890;5.982;2023-01-05T03:25:14;100452.38;;;11.26;84.78
36234;BME280;43467;50.890;5.982;2023-01-05T03:28:01;100464.22;;;11.18;84.73
36234;BME280;43467;50.890;5.982;2023-01-05T03:33:47;100460.84;;;11.15;84.71
36234;BME280;43467;50.890;5.982;2023-01-05T03:36:40;100466.72;;;11.22;84.38
36234;BME280;43467;50.890;5.982;2023-01-05T03:39:10;100463.19;;;11.21;84.38
36234;BME280;43467;50.890;5.982;2023-01-05T03:41:37;100468.78;;;11.15;84.65
36234;BME280;43467;50.890;5.982;2023-01-05T03:44:04;100467.00;;;11.15;84.55
36234;BME280;43467;50.890;5.982;2023-01-05T03:46:30;100479.53;;;11.12;84.81
36234;BME280;43467;50.890;5.982;2023-01-05T03:48:55;100478.56;;;11.13;85.08
36234;BME280;43467;50.890;5.982;2023-01-05T03:51:21;100485.47;;;11.17;84.82
36234;BME280;43467;50.890;5.982;2023-01-05T03:53:46;100481.31;;;11.11;84.77
36234;BME280;43467;50.890;5.982;2023-01-05T03:56:11;100485.47;;;11.17;84.49
36234;BME280;43467;50.890;5.982;2023-01-05T03:58:37;100482.75;;;11.18;85.15
36234;BME280;43467;50.890;5.982;2023-01-05T04:01:02;100468.78;;;11.15;84.80
36234;BME280;43467;50.890;5.982;2023-01-05T04:03:28;100481.03;;;11.17;84.97
36234;BME280;43467;50.890;5.982;2023-01-05T04:05:53;100472.50;;;11.11;85.86
36234;BME280;43467;50.890;5.982;2023-01-05T04:08:19;100475.94;;;11.13;85.77
36234;BME280;43467;50.890;5.982;2023-01-05T04:10:44;100485.59;;;11.14;85.87
36234;BME280;43467;50.890;5.982;2023-01-05T04:13:09;100480.31;;;11.14;85.67
36234;BME280;43467;50.890;5.982;2023-01-05T04:15:35;100471.97;;;11.03;86.18
36234;BME280;43467;50.890;5.982;2023-01-05T04:18:00;100479.72;;;11.07;86.86
36234;BME280;43467;50.890;5.982;2023-01-05T04:20:25;100485.56;;;11.15;87.13
36234;BME280;43467;50.890;5.982;2023-01-05T04:22:51;100476.75;;;11.15;86.59
36234;BME280;43467;50.890;5.982;2023-01-05T04:25:16;100462.97;;;11.07;86.70
36234;BME280;43467;50.890;5.982;2023-01-05T04:27:41;100482.56;;;11.23;86.19
36234;BME280;43467;50.890;5.982;2023-01-05T04:30:07;100484.19;;;11.26;86.09
36234;BME280;43467;50.890;5.982;2023-01-05T04:32:33;100482.69;;;11.20;85.89
36234;BME280;43467;50.890;5.982;2023-01-05T04:34:58;100489.19;;;11.13;86.08
36234;BME280;43467;50.890;5.982;2023-01-05T04:37:24;100488.91;;;11.19;86.31
36234;BME280;43467;50.890;5.982;2023-01-05T04:39:50;100489.78;;;11.19;86.27
36234;BME280;43467;50.890;5.982;2023-01-05T04:42:15;100490.91;;;11.14;86.34
36234;BME280;43467;50.890;5.982;2023-01-05T04:44:41;100494.22;;;11.19;86.35
36234;BME280;43467;50.890;5.982;2023-01-05T04:47:06;100495.94;;;11.20;86.03
36234;BME280;43467;50.890;5.982;2023-01-05T04:49:31;100502.22;;;11.17;86.21
36234;BME280;43467;50.890;5.982;2023-01-05T04:51:57;100499.53;;;11.19;85.90
36234;BME280;43467;50.890;5.982;2023-01-05T04:54:22;100491.06;;;11.11;85.85
36234;BME280;43467;50.890;5.982;2023-01-05T04:56:47;100471.97;;;11.03;85.84
36234;BME280;43467;50.890;5.982;2023-01-05T04:59:13;100499.00;;;11.11;86.19
36234;BME280;43467;50.890;5.982;2023-01-05T05:01:38;100499.78;;;11.13;86.05
36234;BME280;43467;50.890;5.982;2023-01-05T05:04:03;100504.81;;;11.19;85.77
36234;BME280;43467;50.890;5.982;2023-01-05T05:06:29;100502.94;;;11.21;85.58
36234;BME280;43467;50.890;5.982;2023-01-05T05:08:54;100507.66;;;11.14;85.56
36234;BME280;43467;50.890;5.982;2023-01-05T05:11:20;100490.25;;;11.09;85.77
36234;BME280;43467;50.890;5.982;2023-01-05T05:13:45;100503.38;;;11.12;86.31
36234;BME280;43467;50.890;5.982;2023-01-05T05:16:10;100496.50;;;11.08;85.94
36234;BME280;43467;50.890;5.982;2023-01-05T05:18:36;100500.19;;;11.04;86.19
36234;BME280;43467;50.890;5.982;2023-01-05T05:21:01;100513.50;;;11.02;86.41
36234;BME280;43467;50.890;5.982;2023-01-05T05:23:27;100508.94;;;11.06;86.14
36234;BME280;43467;50.890;5.982;2023-01-05T05:25:53;100511.38;;;11.10;86.27
36234;BME280;43467;50.890;5.982;2023-01-05T05:28:19;100506.13;;;11.09;86.40
36234;BME280;43467;50.890;5.982;2023-01-05T05:30:47;100499.06;;;11.09;85.92
36234;BME280;43467;50.890;5.982;2023-01-05T05:33:13;100496.59;;;11.05;86.38
36234;BME280;43467;50.890;5.982;2023-01-05T05:35:38;100499.06;;;11.09;85.91
36234;BME280;43467;50.890;5.982;2023-01-05T05:38:03;100503.56;;;11.07;85.89
36234;BME280;43467;50.890;5.982;2023-01-05T05:40:29;100503.25;;;11.15;85.98
36234;BME280;43467;50.890;5.982;2023-01-05T05:42:54;100510.59;;;11.08;86.24
36234;BME280;43467;50.890;5.982;2023-01-05T05:45:19;100512.81;;;11.17;85.96
36234;BME280;43467;50.890;5.982;2023-01-05T05:47:45;100514.09;;;11.09;85.53
36234;BME280;43467;50.890;5.982;2023-01-05T05:50:10;100521.84;;;11.13;86.22
36234;BME280;43467;50.890;5.982;2023-01-05T05:52:36;100525.97;;;11.21;86.07
36234;BME280;43467;50.890;5.982;2023-01-05T05:55:01;100537.09;;;11.29;86.17
36234;BME280;43467;50.890;5.982;2023-01-05T05:57:27;100530.94;;;11.28;85.73
36234;BME280;43467;50.890;5.982;2023-01-05T05:59:52;100541.66;;;11.25;85.62
36234;BME280;43467;50.890;5.982;2023-01-05T06:02:17;100540.00;;;11.23;85.63
36234;BME280;43467;50.890;5.982;2023-01-05T06:04:44;100545.97;;;11.28;85.53
36234;BME280;43467;50.890;5.982;2023-01-05T06:07:09;100538.56;;;11.15;86.05
36234;BME280;43467;50.890;5.982;2023-01-05T06:09:35;100550.94;;;11.15;86.10
36234;BME280;43467;50.890;5.982;2023-01-05T06:12:00;100559.63;;;11.18;85.89
36234;BME280;43467;50.890;5.982;2023-01-05T06:14:26;100553.44;;;11.18;85.99
36234;BME280;43467;50.890;5.982;2023-01-05T06:16:51;100552.00;;;11.11;85.74
36234;BME280;43467;50.890;5.982;2023-01-05T06:19:16;100562.41;;;11.15;85.96
36234;BME280;43467;50.890;5.982;2023-01-05T06:21:42;100565.09;;;11.14;86.04
36234;BME280;43467;50.890;5.982;2023-01-05T06:24:07;100566.81;;;10.95;86.35
36234;BME280;43467;50.890;5.982;2023-01-05T06:26:32;100567.31;;;11.04;86.86
36234;BME280;43467;50.890;5.982;2023-01-05T06:28:58;100568.94;;;11.07;86.52
36234;BME280;43467;50.890;5.982;2023-01-05T06:31:23;100564.56;;;11.06;86.39
36234;BME280;43467;50.890;5.982;2023-01-05T06:33:48;100574.25;;;11.07;86.31
36234;BME280;43467;50.890;5.982;2023-01-05T06:36:14;100584.81;;;11.08;85.94
36234;BME280;43467;50.890;5.982;2023-01-05T06:38:39;100574.25;;;11.07;85.44
36234;BME280;43467;50.890;5.982;2023-01-05T06:41:04;100582.19;;;11.07;85.60
36234;BME280;43467;50.890;5.982;2023-01-05T06:43:30;100578.97;;;11.00;85.89
36234;BME280;43467;50.890;5.982;2023-01-05T06:45:55;100578.97;;;11.00;85.60
36234;BME280;43467;50.890;5.982;2023-01-05T06:48:21;100580.66;;;11.01;85.79
36234;BME280;43467;50.890;5.982;2023-01-05T06:50:46;100580.78;;;10.98;86.15
36234;BME280;43467;50.890;5.982;2023-01-05T06:53:11;100579.78;;;11.01;85.75
36234;BME280;43467;50.890;5.982;2023-01-05T06:55:37;100583.41;;;11.00;85.93
36234;BME280;43467;50.890;5.982;2023-01-05T06:58:02;100583.06;;;11.07;85.72
36234;BME280;43467;50.890;5.982;2023-01-05T07:00:27;100590.22;;;11.05;85.56
36234;BME280;43467;50.890;5.982;2023-01-05T07:02:53;100582.38;;;11.02;85.51
36234;BME280;43467;50.890;5.982;2023-01-05T07:05:18;100606.97;;;11.06;85.30
36234;BME280;43467;50.890;5.982;2023-01-05T07:07:44;100590.78;;;10.92;85.52
36234;BME280;43467;50.890;5.982;2023-01-05T07:10:09;100608.66;;;11.08;85.22
36234;BME280;43467;50.890;5.982;2023-01-05T07:12:35;100612.94;;;11.11;85.50
36234;BME280;43467;50.890;5.982;2023-01-05T07:15:00;100624.66;;;11.05;85.10
36234;BME280;43467;50.890;5.982;2023-01-05T07:17:25;100625.94;;;11.17;84.83
36234;BME280;43467;50.890;5.982;2023-01-05T07:19:51;100625.66;;;11.03;85.21
36234;BME280;43467;50.890;5.982;2023-01-05T07:22:16;100617.66;;;11.04;85.00
36234;BME280;43467;50.890;5.982;2023-01-05T07:24:42;100620.47;;;11.00;84.97
36234;BME280;43467;50.890;5.982;2023-01-05T07:27:07;100621.94;;;11.07;85.20
36234;BME280;43467;50.890;5.982;2023-01-05T07:29:33;100621.22;;;11.03;85.08
36234;BME280;43467;50.890;5.982;2023-01-05T07:31:58;100622.00;;;11.05;85.05
36234;BME280;43467;50.890;5.982;2023-01-05T07:34:24;100631.63;;;11.08;84.76
36234;BME280;43467;50.890;5.982;2023-01-05T07:36:49;100630.13;;;11.01;85.05
36234;BME280;43467;50.890;5.982;2023-01-05T07:39:15;100623.13;;;11.00;85.21
36234;BME280;43467;50.890;5.982;2023-01-05T07:41:41;100620.00;;;10.90;85.82
36234;BME280;43467;50.890;5.982;2023-01-05T07:44:07;100619.00;;;10.93;85.58
36234;BME280;43467;50.890;5.982;2023-01-05T07:46:33;100630.59;;;10.90;85.75
36234;BME280;43467;50.890;5.982;2023-01-05T07:48:58;100641.78;;;10.97;85.78
36234;BME280;43467;50.890;5.982;2023-01-05T07:51:24;100635.63;;;10.96;85.68
36234;BME280;43467;50.890;5.982;2023-01-05T07:53:50;100647.94;;;10.97;85.70
36234;BME280;43467;50.890;5.982;2023-01-05T07:56:15;100640.88;;;10.98;85.52
36234;BME280;43467;50.890;5.982;2023-01-05T07:58:41;100637.47;;;10.94;85.49
36234;BME280;43467;50.890;5.982;2023-01-05T08:01:09;100651.47;;;10.98;86.43
36234;BME280;43467;50.890;5.982;2023-01-05T08:03:35;100651.41;;;10.99;86.58
36234;BME280;43467;50.890;5.982;2023-01-05T08:06:11;100662.00;;;10.99;86.73
36234;BME280;43467;50.890;5.982;2023-01-05T08:08:37;100662.56;;;10.86;86.96
36234;BME280;43467;50.890;5.982;2023-01-05T08:11:07;100662.25;;;10.93;86.84
36234;BME280;43467;50.890;5.982;2023-01-05T08:13:33;100665.56;;;10.98;86.68
36234;BME280;43467;50.890;5.982;2023-01-05T08:16:18;100676.19;;;10.98;86.37
36234;BME280;43467;50.890;5.982;2023-01-05T08:18:43;100663.16;;;10.92;86.57
36234;BME280;43467;50.890;5.982;2023-01-05T08:21:08;100679.00;;;10.94;86.38
36234;BME280;43467;50.890;5.982;2023-01-05T08:23:35;100666.03;;;10.88;86.56
36234;BME280;43467;50.890;5.982;2023-01-05T08:26:05;100663.06;;;10.95;86.35
36234;BME280;43467;50.890;5.982;2023-01-05T08:28:31;100672.72;;;10.96;86.45
36234;BME280;43467;50.890;5.982;2023-01-05T08:31:01;100682.56;;;10.93;86.48
36234;BME280;43467;50.890;5.982;2023-01-05T08:33:27;100678.28;;;10.90;86.43
36234;BME280;43467;50.890;5.982;2023-01-05T08:35:53;100673.88;;;10.89;86.50
36234;BME280;43467;50.890;5.982;2023-01-05T08:38:22;100686.09;;;10.93;86.39
36234;BME280;43467;50.890;5.982;2023-01-05T08:40:48;100678.28;;;10.90;86.69
36234;BME280;43467;50.890;5.982;2023-01-05T08:43:13;100689.56;;;10.95;86.33
36234;BME280;43467;50.890;5.982;2023-01-05T08:45:39;100691.25;;;10.96;86.17
36234;BME280;43467;50.890;5.982;2023-01-05T08:48:05;100695.63;;;10.97;86.15
36234;BME280;43467;50.890;5.982;2023-01-05T08:50:30;100671.38;;;10.86;85.83
36234;BME280;43467;50.890;5.982;2023-01-05T08:52:57;100687.66;;;10.99;85.39
36234;BME280;43467;50.890;5.982;2023-01-05T08:55:22;100686.59;;;11.03;85.43
36234;BME280;43467;50.890;5.982;2023-01-05T08:57:48;100689.38;;;11.00;85.21
36234;BME280;43467;50.890;5.982;2023-01-05T09:00:14;100687.28;;;11.08;85.50
36234;BME280;43467;50.890;5.982;2023-01-05T09:02:42;100703.19;;;11.08;85.26
36234;BME280;43467;50.890;5.982;2023-01-05T09:05:07;100704.03;;;11.08;85.12
36234;BME280;43467;50.890;5.982;2023-01-05T09:07:33;100703.19;;;11.08;85.25
36234;BME280;43467;50.890;5.982;2023-01-05T09:09:58;100719.81;;;11.11;84.76
36234;BME280;43467;50.890;5.982;2023-01-05T09:12:23;100711.19;;;11.06;84.57
36234;BME280;43467;50.890;5.982;2023-01-05T09:14:49;100712.09;;;11.05;84.74
36234;BME280;43467;50.890;5.982;2023-01-05T09:17:14;100710.31;;;11.06;84.66
36234;BME280;43467;50.890;5.982;2023-01-05T09:19:40;100711.31;;;11.03;84.70
36234;BME280;43467;50.890;5.982;2023-01-05T09:22:05;100715.47;;;11.09;84.40
36234;BME280;43467;50.890;5.982;2023-01-05T09:24:31;100723.06;;;11.18;84.21
36234;BME280;43467;50.890;5.982;2023-01-05T09:26:56;100722.38;;;11.13;83.83
36234;BME280;43467;50.890;5.982;2023-01-05T09:29:22;100721.53;;;11.12;83.83
36234;BME280;43467;50.890;5.982;2023-01-05T09:31:47;100731.84;;;11.20;83.86
36234;BME280;43467;50.890;5.982;2023-01-05T09:34:12;100733.75;;;11.16;83.96
36234;BME280;43467;50.890;5.982;2023-01-05T09:36:38;100728.72;;;11.09;83.75
36234;BME280;43467;50.890;5.982;2023-01-05T09:39:04;100736.69;;;11.09;83.78
36234;BME280;43467;50.890;5.982;2023-01-05T09:41:36;100733.28;;;11.05;84.05
36234;BME280;43467;50.890;5.982;2023-01-05T09:46:55;100754.41;;;11.08;84.04
36234;BME280;43467;50.890;5.982;2023-01-05T09:49:23;100757.97;;;11.07;83.51
36234;BME280;43467;50.890;5.982;2023-01-05T09:51:55;100765.78;;;11.10;83.39
36234;BME280;43467;50.890;5.982;2023-01-05T09:54:22;100750.13;;;11.04;83.40
36234;BME280;43467;50.890;5.982;2023-01-05T09:56:51;100766.34;;;11.18;83.27
36234;BME280;43467;50.890;5.982;2023-01-05T09:59:27;100767.06;;;11.22;83.40
36234;BME280;43467;50.890;5.982;2023-01-05T10:01:55;100764.28;;;11.25;82.91
36234;BME280;43467;50.890;5.982;2023-01-05T10:04:24;100774.34;;;11.17;83.14
36234;BME280;43467;50.890;5.982;2023-01-05T10:06:54;100759.25;;;11.19;82.91
36234;BME280;43467;50.890;5.982;2023-01-05T10:09:25;100763.50;;;11.23;83.04
36234;BME280;43467;50.890;5.982;2023-01-05T10:11:54;100768.75;;;11.25;82.89
36234;BME280;43467;50.890;5.982;2023-01-05T10:14:45;100770.53;;;11.24;83.16
36234;BME280;43467;50.890;5.982;2023-01-05T10:17:15;100761.59;;;11.27;82.84
36234;BME280;43467;50.890;5.982;2023-01-05T10:19:42;100777.31;;;11.31;82.65
36234;BME280;43467;50.890;5.982;2023-01-05T10:22:30;100771.66;;;11.40;81.86
36234;BME280;43467;50.890;5.982;2023-01-05T10:33:02;100778.44;;;11.47;81.85
36234;BME280;43467;50.890;5.982;2023-01-05T10:38:40;100788.66;;;11.56;80.98
36234;BME280;43467;50.890;5.982;2023-01-05T10:46:47;100777.31;;;11.53;81.38
36234;BME280;43467;50.890;5.982;2023-01-05T10:49:23;100784.41;;;11.52;81.25
36234;BME280;43467;50.890;5.982;2023-01-05T10:51:50;100787.13;;;11.51;81.82
36234;BME280;43467;50.890;5.982;2023-01-05T11:00:00;100793.91;;;11.36;81.75
36234;BME280;43467;50.890;5.982;2023-01-05T11:02:28;100787.25;;;11.48;82.12
36234;BME280;43467;50.890;5.982;2023-01-05T11:05:04;100787.38;;;11.45;82.28
36234;BME280;43467;50.890;5.982;2023-01-05T11:07:30;100788.13;;;11.48;81.81
36234;BME280;43467;50.890;5.982;2023-01-05T11:09:56;100783.59;;;11.50;81.83
36234;BME280;43467;50.890;5.982;2023-01-05T11:12:23;100794.88;;;11.55;82.10
36234;BME280;43467;50.890;5.982;2023-01-05T11:14:54;100791.13;;;11.61;82.08
36234;BME280;43467;50.890;5.982;2023-01-05T11:17:23;100788.59;;;11.58;82.24
36234;BME280;43467;50.890;5.982;2023-01-05T11:19:51;100786.88;;;11.57;81.73
36234;BME280;43467;50.890;5.982;2023-01-05T11:22:35;100788.78;;;11.53;82.13
36234;BME280;43467;50.890;5.982;2023-01-05T11:27:46;100788.59;;;11.58;82.12
36234;BME280;43467;50.890;5.982;2023-01-05T11:32:42;100792.28;;;11.54;82.40
36234;BME280;43467;50.890;5.982;2023-01-05T11:35:31;100793.53;;;11.45;82.93
36234;BME280;43467;50.890;5.982;2023-01-05T11:37:58;100787.38;;;11.45;82.39
36234;BME280;43467;50.890;5.982;2023-01-05T11:40:28;100793.41;;;11.48;82.19
36234;BME280;43467;50.890;5.982;2023-01-05T11:42:55;100798.72;;;11.48;82.55
36234;BME280;43467;50.890;5.982;2023-01-05T11:45:21;100797.59;;;11.54;82.44
36234;BME280;43467;50.890;5.982;2023-01-05T11:47:55;100796.72;;;11.53;82.42
36234;BME280;43467;50.890;5.982;2023-01-05T11:50:31;100791.75;;;11.46;82.54
36234;BME280;43467;50.890;5.982;2023-01-05T11:53:01;100793.41;;;11.48;82.23
36234;BME280;43467;50.890;5.982;2023-01-05T11:57:58;100795.69;;;11.57;82.08
36234;BME280;43467;50.890;5.982;2023-01-05T12:00:50;100777.94;;;11.59;82.10
36234;BME280;43467;50.890;5.982;2023-01-05T12:03:46;100765.91;;;11.51;82.04
36234;BME280;43467;50.890;5.982;2023-01-05T12:06:45;100783.03;;;11.64;81.42
36234;BME280;43467;50.890;5.982;2023-01-05T12:17:02;100774.94;;;11.67;81.63
36234;BME280;43467;50.890;5.982;2023-01-05T12:27:47;100765.06;;;11.72;81.41
36234;BME280;43467;50.890;5.982;2023-01-05T12:30:26;100769.50;;;11.72;81.48
36234;BME280;43467;50.890;5.982;2023-01-05T12:35:54;100771.63;;;11.62;81.45
36234;BME280;43467;50.890;5.982;2023-01-05T12:46:18;100773.91;;;11.71;81.53
36234;BME280;43467;50.890;5.982;2023-01-05T12:48:52;100770.09;;;11.78;81.29
36234;BME280;43467;50.890;5.982;2023-01-05T12:51:23;100767.72;;;11.71;81.25
36234;BME280;43467;50.890;5.982;2023-01-05T12:54:02;100768.00;;;11.64;81.06
36234;BME280;43467;50.890;5.982;2023-01-05T12:56:37;100760.72;;;11.70;81.36
36234;BME280;43467;50.890;5.982;2023-01-05T13:01:45;100756.78;;;11.80;80.45
36234;BME280;43467;50.890;5.982;2023-01-05T13:04:34;100753.13;;;11.82;80.39
36234;BME280;43467;50.890;5.982;2023-01-05T13:07:08;100752.91;;;11.87;80.40
36234;BME280;43467;50.890;5.982;2023-01-05T13:09:34;100760.97;;;11.85;79.82
36234;BME280;43467;50.890;5.982;2023-01-05T13:12:05;100752.56;;;11.74;79.65
36234;BME280;43467;50.890;5.982;2023-01-05T13:14:40;100756.09;;;11.95;79.92
36234;BME280;43467;50.890;5.982;2023-01-05T13:17:19;100731.25;;;11.77;79.55
36234;BME280;43467;50.890;5.982;2023-01-05T13:19:53;100753.41;;;11.96;79.28
36234;BME280;43467;50.890;5.982;2023-01-05T13:22:25;100738.88;;;11.85;79.42
36234;BME280;43467;50.890;5.982;2023-01-05T13:25:18;100747.09;;;11.99;78.97
36234;BME280;43467;50.890;5.982;2023-01-05T13:27:45;100744.09;;;12.06;79.20
36234;BME280;43467;50.890;5.982;2023-01-05T13:30:31;100751.22;;;12.06;78.85
36234;BME280;43467;50.890;5.982;2023-01-05T13:33:11;100748.56;;;12.06;79.40
36234;BME280;43467;50.890;5.982;2023-01-05T13:55:12;100734.88;;;11.95;80.15
36234;BME280;43467;50.890;5.982;2023-01-05T13:57:41;100748.22;;;11.93;80.06
36234;BME280;43467;50.890;5.982;2023-01-05T14:00:20;100746.50;;;11.92;80.78
36234;BME280;43467;50.890;5.982;2023-01-05T14:05:25;100740.84;;;12.00;80.82
36234;BME280;43467;50.890;5.982;2023-01-05T14:07:53;100742.59;;;12.01;80.38
36234;BME280;43467;50.890;5.982;2023-01-05T14:10:37;100735.34;;;11.84;81.12
36234;BME280;43467;50.890;5.982;2023-01-05T14:13:02;100739.75;;;11.85;81.11
36234;BME280;43467;50.890;5.982;2023-01-05T14:18:01;100744.03;;;11.88;81.24
36234;BME280;43467;50.890;5.982;2023-01-05T14:22:55;100743.31;;;11.84;81.38
36234;BME280;43467;50.890;5.982;2023-01-05T14:33:32;100740.31;;;11.72;82.94
36234;BME280;43467;50.890;5.982;2023-01-05T14:36:23;100754.16;;;11.78;82.92
36234;BME280;43467;50.890;5.982;2023-01-05T14:38:49;100748.28;;;11.72;83.37
36234;BME280;43467;50.890;5.982;2023-01-05T14:41:20;100748.38;;;11.69;84.26
36234;BME280;43467;50.890;5.982;2023-01-05T14:43:55;100755.66;;;11.63;85.04
36234;BME280;43467;50.890;5.982;2023-01-05T14:46:22;100756.94;;;11.53;85.55
36234;BME280;43467;50.890;5.982;2023-01-05T14:49:00;100757.03;;;11.52;85.89
36234;BME280;43467;50.890;5.982;2023-01-05T14:51:35;100756.16;;;11.51;86.52
36234;BME280;43467;50.890;5.982;2023-01-05T14:54:03;100763.97;;;11.54;86.65
36234;BME280;43467;50.890;5.982;2023-01-05T14:56:35;100764.66;;;11.59;87.05
36234;BME280;43467;50.890;5.982;2023-01-05T15:01:46;100764.50;;;11.42;89.81